sensor_id;sensor_type;location;lat;lon;timestamp;temperature;humidity
34279;DHT22;20538;51.528;9.942;2022-11-20T00:00:09;-4.60;99.90
34279;DHT22;20538;51.528;9.942;2022-11-20T00:02:35;-4.70;99.90
34279;DHT22;20538;51.528;9.942;2022-11-20T00:05:01;-4.70;99.90
34279;DHT22;20538;51.528;9.942;2022-11-20T00:07:26;-4.70;99.90
34279;DHT22;20538;51.528;9.942;2022-11-20T00:09:52;-4.80;99.90
34279;DHT22;20538;51.528;9.942;2022-11-20T00:12:17;-4.80;99.90
34279;DHT22;20538;51.528;9.942;2022-11-20T00:14:43;-4.80;99.90
34279;DHT22;20538;51.528;9.942;2022-11-20T00:17:09;-4.70;99.90
34279;DHT22;20538;51.528;9.942;2022-11-20T00:19:35;-4.60;99.90
34279;DHT22;20538;51.528;9.942;2022-11-20T00:22:00;-4.70;99.90
34279;DHT22;20538;51.528;9.942;2022-11-20T00:24:26;-4.60;99.90
34279;DHT22;20538;51.528;9.942;2022-11-20T00:26:51;-4.60;99.90
34279;DHT22;20538;51.528;9.942;2022-11-20T00:29:17;-4.70;99.90
34279;DHT22;20538;51.528;9.942;2022-11-20T00:31:43;-4.70;99.90
34279;DHT22;20538;51.528;9.942;2022-11-20T00:34:09;-4.80;99.90
34279;DHT22;20538;51.528;9.942;2022-11-20T00:36:35;-4.80;99.90
34279;DHT22;20538;51.528;9.942;2022-11-20T00:39:01;-4.80;99.90
34279;DHT22;20538;51.528;9.942;2022-11-20T00:41:28;-4.80;99.90
34279;DHT22;20538;51.528;9.942;2022-11-20T00:43:55;-4.80;99.90
34279;DHT22;20538;51.528;9.942;2022-11-20T00:46:22;-4.70;99.90
34279;DHT22;20538;51.528;9.942;2022-11-20T00:48:49;-4.80;99.90
34279;DHT22;20538;51.528;9.942;2022-11-20T00:51:18;-4.80;99.90
34279;DHT22;20538;51.528;9.942;2022-11-20T00:53:44;-4.90;99.90
34279;DHT22;20538;51.528;9.942;2022-11-20T00:56:12;-5.00;99.90
34279;DHT22;20538;51.528;9.942;2022-11-20T00:58:40;-5.00;99.90
34279;DHT22;20538;51.528;9.942;2022-11-20T01:01:17;-4.90;99.90
34279;DHT22;20538;51.528;9.942;2022-11-20T01:03:45;-4.90;99.90
34279;DHT22;20538;51.528;9.942;2022-11-20T01:06:17;-4.90;99.90
34279;DHT22;20538;51.528;9.942;2022-11-20T01:08:44;-5.10;99.90
34279;DHT22;20538;51.528;9.942;2022-11-20T01:11:16;-5.10;99.90
34279;DHT22;20538;51.528;9.942;2022-11-20T01:13:42;-5.10;99.90
34279;DHT22;20538;51.528;9.942;2022-11-20T01:16:20;-5.10;99.90
34279;DHT22;20538;51.528;9.942;2022-11-20T01:18:48;-5.10;99.90
34279;DHT22;20538;51.528;9.942;2022-11-20T01:21:17;-5.20;99.90
34279;DHT22;20538;51.528;9.942;2022-11-20T01:23:44;-5.30;99.90
34279;DHT22;20538;51.528;9.942;2022-11-20T01:26:12;-5.30;99.90
34279;DHT22;20538;51.528;9.942;2022-11-20T01:28:39;-5.20;99.90
34279;DHT22;20538;51.528;9.942;2022-11-20T01:31:14;-5.10;99.90
34279;DHT22;20538;51.528;9.942;2022-11-20T01:33:41;-5.00;99.90
34279;DHT22;20538;51.528;9.942;2022-11-20T01:36:08;-5.10;99.90
34279;DHT22;20538;51.528;9.942;2022-11-20T01:38:34;-5.20;99.90
34279;DHT22;20538;51.528;9.942;2022-11-20T01:41:00;-5.30;99.90
34279;DHT22;20538;51.528;9.942;2022-11-20T01:43:26;-5.30;99.90
34279;DHT22;20538;51.528;9.942;2022-11-20T01:46:14;-5.40;99.90
34279;DHT22;20538;51.528;9.942;2022-11-20T01:51:47;-5.30;99.90
34279;DHT22;20538;51.528;9.942;2022-11-20T01:54:31;-5.30;99.90
34279;DHT22;20538;51.528;9.942;2022-11-20T01:56:57;-5.30;99.90
34279;DHT22;20538;51.528;9.942;2022-11-20T01:59:26;-5.20;99.90
34279;DHT22;20538;51.528;9.942;2022-11-20T02:01:53;-5.20;99.90
34279;DHT22;20538;51.528;9.942;2022-11-20T02:04:20;-5.20;99.90
34279;DHT22;20538;51.528;9.942;2022-11-20T02:06:48;-5.30;99.90
34279;DHT22;20538;51.528;9.942;2022-11-20T02:09:15;-5.40;99.90
34279;DHT22;20538;51.528;9.942;2022-11-20T02:11:41;-5.40;99.90
34279;DHT22;20538;51.528;9.942;2022-11-20T02:14:07;-5.50;99.90
34279;DHT22;20538;51.528;9.942;2022-11-20T02:16:37;-5.50;99.90
34279;DHT22;20538;51.528;9.942;2022-11-20T02:19:08;-5.60;99.90
34279;DHT22;20538;51.528;9.942;2022-11-20T02:22:08;-5.60;99.90
34279;DHT22;20538;51.528;9.942;2022-11-20T02:24:36;-5.60;99.90
34279;DHT22;20538;51.528;9.942;2022-11-20T02:27:06;-5.70;99.90
34279;DHT22;20538;51.528;9.942;2022-11-20T02:32:31;-5.70;99.90
34279;DHT22;20538;51.528;9.942;2022-11-20T02:34:57;-5.70;99.90
34279;DHT22;20538;51.528;9.942;2022-11-20T02:37:29;-5.60;99.90
34279;DHT22;20538;51.528;9.942;2022-11-20T02:39:55;-5.60;99.90
34279;DHT22;20538;51.528;9.942;2022-11-20T02:42:21;-5.60;99.90
34279;DHT22;20538;51.528;9.942;2022-11-20T02:44:47;-5.60;99.90
34279;DHT22;20538;51.528;9.942;2022-11-20T02:47:12;-5.60;99.90
34279;DHT22;20538;51.528;9.942;2022-11-20T02:49:38;-5.60;99.90
34279;DHT22;20538;51.528;9.942;2022-11-20T02:52:04;-5.50;99.90
34279;DHT22;20538;51.528;9.942;2022-11-20T02:54:29;-5.50;99.90
34279;DHT22;20538;51.528;9.942;2022-11-20T02:56:56;-5.60;99.90
34279;DHT22;20538;51.528;9.942;2022-11-20T02:59:21;-5.60;99.90
34279;DHT22;20538;51.528;9.942;2022-11-20T03:01:47;-5.70;99.90
34279;DHT22;20538;51.528;9.942;2022-11-20T03:04:13;-5.70;99.90
34279;DHT22;20538;51.528;9.942;2022-11-20T03:06:38;-5.70;99.90
34279;DHT22;20538;51.528;9.942;2022-11-20T03:09:04;-5.70;99.90
34279;DHT22;20538;51.528;9.942;2022-11-20T03:11:29;-5.70;99.90
34279;DHT22;20538;51.528;9.942;2022-11-20T03:13:55;-5.70;99.90
34279;DHT22;20538;51.528;9.942;2022-11-20T03:16:22;-5.80;99.90
34279;DHT22;20538;51.528;9.942;2022-11-20T03:18:48;-5.70;99.90
34279;DHT22;20538;51.528;9.942;2022-11-20T03:21:15;-5.70;99.90
34279;DHT22;20538;51.528;9.942;2022-11-20T03:23:41;-5.80;99.90
34279;DHT22;20538;51.528;9.942;2022-11-20T03:28:33;-5.80;99.90
34279;DHT22;20538;51.528;9.942;2022-11-20T03:31:14;-5.80;99.90
34279;DHT22;20538;51.528;9.942;2022-11-20T03:33:41;-5.70;99.90
34279;DHT22;20538;51.528;9.942;2022-11-20T03:36:10;-5.70;99.90
34279;DHT22;20538;51.528;9.942;2022-11-20T03:38:36;-5.80;99.90
34279;DHT22;20538;51.528;9.942;2022-11-20T03:41:04;-5.70;99.90
34279;DHT22;20538;51.528;9.942;2022-11-20T03:43:31;-5.80;99.90
34279;DHT22;20538;51.528;9.942;2022-11-20T03:45:57;-5.90;99.90
34279;DHT22;20538;51.528;9.942;2022-11-20T03:48:23;-5.90;99.90
34279;DHT22;20538;51.528;9.942;2022-11-20T03:50:49;-5.90;99.90
34279;DHT22;20538;51.528;9.942;2022-11-20T03:53:15;-5.90;99.90
34279;DHT22;20538;51.528;9.942;2022-11-20T03:55:41;-5.80;99.90
34279;DHT22;20538;51.528;9.942;2022-11-20T03:58:07;-5.90;99.90
34279;DHT22;20538;51.528;9.942;2022-11-20T04:00:32;-6.00;99.90
34279;DHT22;20538;51.528;9.942;2022-11-20T04:02:59;-6.00;99.90
34279;DHT22;20538;51.528;9.942;2022-11-20T04:05:25;-6.00;99.90
34279;DHT22;20538;51.528;9.942;2022-11-20T04:07:50;-6.00;99.90
34279;DHT22;20538;51.528;9.942;2022-11-20T04:10:16;-6.00;99.90
34279;DHT22;20538;51.528;9.942;2022-11-20T04:12:42;-5.90;99.90
34279;DHT22;20538;51.528;9.942;2022-11-20T04:15:08;-6.00;99.90
34279;DHT22;20538;51.528;9.942;2022-11-20T04:17:34;-6.10;99.90
34279;DHT22;20538;51.528;9.942;2022-11-20T04:19:59;-6.10;99.90
34279;DHT22;20538;51.528;9.942;2022-11-20T04:22:25;-6.00;99.90
34279;DHT22;20538;51.528;9.942;2022-11-20T04:24:51;-5.90;99.90
34279;DHT22;20538;51.528;9.942;2022-11-20T04:27:16;-6.00;99.90
34279;DHT22;20538;51.528;9.942;2022-11-20T04:29:42;-5.90;99.90
34279;DHT22;20538;51.528;9.942;2022-11-20T04:32:08;-6.00;99.90
34279;DHT22;20538;51.528;9.942;2022-11-20T04:34:33;-6.00;99.90
34279;DHT22;20538;51.528;9.942;2022-11-20T04:36:59;-5.90;99.90
34279;DHT22;20538;51.528;9.942;2022-11-20T04:39:25;-5.90;99.90
34279;DHT22;20538;51.528;9.942;2022-11-20T04:41:50;-5.90;99.90
34279;DHT22;20538;51.528;9.942;2022-11-20T04:44:39;-6.00;99.90
34279;DHT22;20538;51.528;9.942;2022-11-20T04:47:05;-6.10;99.90
34279;DHT22;20538;51.528;9.942;2022-11-20T04:49:31;-6.00;99.90
34279;DHT22;20538;51.528;9.942;2022-11-20T04:51:58;-6.10;99.90
34279;DHT22;20538;51.528;9.942;2022-11-20T04:54:23;-6.20;99.90
34279;DHT22;20538;51.528;9.942;2022-11-20T04:56:50;-6.20;99.90
34279;DHT22;20538;51.528;9.942;2022-11-20T04:59:16;-6.20;99.90
34279;DHT22;20538;51.528;9.942;2022-11-20T05:01:41;-6.20;99.90
34279;DHT22;20538;51.528;9.942;2022-11-20T05:04:07;-6.10;99.90
34279;DHT22;20538;51.528;9.942;2022-11-20T05:06:33;-6.10;99.90
34279;DHT22;20538;51.528;9.942;2022-11-20T05:08:58;-6.10;99.90
34279;DHT22;20538;51.528;9.942;2022-11-20T05:11:24;-6.20;99.90
34279;DHT22;20538;51.528;9.942;2022-11-20T05:13:51;-6.20;99.90
34279;DHT22;20538;51.528;9.942;2022-11-20T05:16:19;-6.20;99.90
34279;DHT22;20538;51.528;9.942;2022-11-20T05:18:45;-6.30;99.90
34279;DHT22;20538;51.528;9.942;2022-11-20T05:21:12;-6.30;99.90
34279;DHT22;20538;51.528;9.942;2022-11-20T05:23:39;-6.30;99.90
34279;DHT22;20538;51.528;9.942;2022-11-20T05:26:06;-6.30;99.90
34279;DHT22;20538;51.528;9.942;2022-11-20T05:28:32;-6.30;99.90
34279;DHT22;20538;51.528;9.942;2022-11-20T05:31:10;-6.30;99.90
34279;DHT22;20538;51.528;9.942;2022-11-20T05:33:40;-6.30;99.90
34279;DHT22;20538;51.528;9.942;2022-11-20T05:36:07;-6.30;99.90
34279;DHT22;20538;51.528;9.942;2022-11-20T05:38:33;-6.30;99.90
34279;DHT22;20538;51.528;9.942;2022-11-20T05:41:08;-6.30;99.90
34279;DHT22;20538;51.528;9.942;2022-11-20T05:43:34;-6.30;99.90
34279;DHT22;20538;51.528;9.942;2022-11-20T05:46:01;-6.30;99.90
34279;DHT22;20538;51.528;9.942;2022-11-20T05:48:26;-6.30;99.90
34279;DHT22;20538;51.528;9.942;2022-11-20T05:50:52;-6.30;99.90
34279;DHT22;20538;51.528;9.942;2022-11-20T05:53:17;-6.40;99.90
34279;DHT22;20538;51.528;9.942;2022-11-20T05:55:43;-6.40;99.90
34279;DHT22;20538;51.528;9.942;2022-11-20T05:58:09;-6.40;99.90
34279;DHT22;20538;51.528;9.942;2022-11-20T06:00:34;-6.40;99.90
34279;DHT22;20538;51.528;9.942;2022-11-20T06:03:01;-6.40;99.90
34279;DHT22;20538;51.528;9.942;2022-11-20T06:05:26;-6.40;99.90
34279;DHT22;20538;51.528;9.942;2022-11-20T06:07:52;-6.40;99.90
34279;DHT22;20538;51.528;9.942;2022-11-20T06:10:18;-6.40;99.90
34279;DHT22;20538;51.528;9.942;2022-11-20T06:12:43;-6.40;99.90
34279;DHT22;20538;51.528;9.942;2022-11-20T06:15:09;-6.50;99.90
34279;DHT22;20538;51.528;9.942;2022-11-20T06:17:35;-6.40;99.90
34279;DHT22;20538;51.528;9.942;2022-11-20T06:20:01;-6.30;99.90
34279;DHT22;20538;51.528;9.942;2022-11-20T06:22:26;-6.20;99.90
34279;DHT22;20538;51.528;9.942;2022-11-20T06:24:52;-6.30;99.90
34279;DHT22;20538;51.528;9.942;2022-11-20T06:27:18;-6.30;99.90
34279;DHT22;20538;51.528;9.942;2022-11-20T06:29:43;-6.40;99.90
34279;DHT22;20538;51.528;9.942;2022-11-20T06:32:09;-6.40;99.90
34279;DHT22;20538;51.528;9.942;2022-11-20T06:34:35;-6.40;99.90
34279;DHT22;20538;51.528;9.942;2022-11-20T06:37:00;-6.30;99.90
34279;DHT22;20538;51.528;9.942;2022-11-20T06:39:26;-6.20;99.90
34279;DHT22;20538;51.528;9.942;2022-11-20T06:41:51;-6.30;99.90
34279;DHT22;20538;51.528;9.942;2022-11-20T06:44:17;-6.30;99.90
34279;DHT22;20538;51.528;9.942;2022-11-20T06:46:43;-6.30;99.90
34279;DHT22;20538;51.528;9.942;2022-11-20T06:49:08;-6.30;99.90
34279;DHT22;20538;51.528;9.942;2022-11-20T06:51:34;-6.20;99.90
34279;DHT22;20538;51.528;9.942;2022-11-20T06:54:00;-6.00;99.90
34279;DHT22;20538;51.528;9.942;2022-11-20T06:56:26;-5.90;99.90
34279;DHT22;20538;51.528;9.942;2022-11-20T06:58:51;-5.70;99.90
34279;DHT22;20538;51.528;9.942;2022-11-20T07:01:17;-5.60;99.90
34279;DHT22;20538;51.528;9.942;2022-11-20T07:03:43;-5.40;99.90
34279;DHT22;20538;51.528;9.942;2022-11-20T07:06:09;-5.30;99.90
34279;DHT22;20538;51.528;9.942;2022-11-20T07:08:35;-5.20;99.90
34279;DHT22;20538;51.528;9.942;2022-11-20T07:11:02;-5.00;99.90
34279;DHT22;20538;51.528;9.942;2022-11-20T07:13:29;-5.00;99.90
34279;DHT22;20538;51.528;9.942;2022-11-20T07:15:59;-4.90;99.90
34279;DHT22;20538;51.528;9.942;2022-11-20T07:18:25;-4.80;99.90
34279;DHT22;20538;51.528;9.942;2022-11-20T07:20:50;-4.70;99.90
34279;DHT22;20538;51.528;9.942;2022-11-20T07:23:16;-4.70;99.90
34279;DHT22;20538;51.528;9.942;2022-11-20T07:25:42;-4.60;99.90
34279;DHT22;20538;51.528;9.942;2022-11-20T07:28:08;-4.60;99.90
34279;DHT22;20538;51.528;9.942;2022-11-20T07:30:36;-4.60;99.90
34279;DHT22;20538;51.528;9.942;2022-11-20T07:33:02;-4.40;99.90
34279;DHT22;20538;51.528;9.942;2022-11-20T07:35:27;-4.30;99.90
34279;DHT22;20538;51.528;9.942;2022-11-20T07:37:53;-4.40;99.90
34279;DHT22;20538;51.528;9.942;2022-11-20T07:40:19;-4.30;99.90
34279;DHT22;20538;51.528;9.942;2022-11-20T07:42:52;-4.20;99.90
34279;DHT22;20538;51.528;9.942;2022-11-20T07:45:19;-4.20;99.90
34279;DHT22;20538;51.528;9.942;2022-11-20T07:47:45;-4.10;99.90
34279;DHT22;20538;51.528;9.942;2022-11-20T07:50:11;-4.10;99.90
34279;DHT22;20538;51.528;9.942;2022-11-20T07:52:37;-4.00;99.90
34279;DHT22;20538;51.528;9.942;2022-11-20T07:55:03;-4.00;99.90
34279;DHT22;20538;51.528;9.942;2022-11-20T07:57:32;-3.90;99.90
34279;DHT22;20538;51.528;9.942;2022-11-20T08:00:01;-3.90;99.90
34279;DHT22;20538;51.528;9.942;2022-11-20T08:02:26;-3.90;99.90
34279;DHT22;20538;51.528;9.942;2022-11-20T08:05:01;-3.80;99.90
34279;DHT22;20538;51.528;9.942;2022-11-20T08:07:26;-3.80;99.90
34279;DHT22;20538;51.528;9.942;2022-11-20T08:09:52;-3.60;99.90
34279;DHT22;20538;51.528;9.942;2022-11-20T08:12:20;-3.50;99.90
34279;DHT22;20538;51.528;9.942;2022-11-20T08:15:05;-3.50;99.90
34279;DHT22;20538;51.528;9.942;2022-11-20T08:17:31;-3.40;99.90
34279;DHT22;20538;51.528;9.942;2022-11-20T08:19:57;-3.30;99.90
34279;DHT22;20538;51.528;9.942;2022-11-20T08:22:23;-3.40;99.90
34279;DHT22;20538;51.528;9.942;2022-11-20T08:24:50;-3.30;99.90
34279;DHT22;20538;51.528;9.942;2022-11-20T08:27:15;-3.20;99.90
34279;DHT22;20538;51.528;9.942;2022-11-20T08:29:41;-3.20;99.90
34279;DHT22;20538;51.528;9.942;2022-11-20T08:32:07;-3.20;99.90
34279;DHT22;20538;51.528;9.942;2022-11-20T08:34:32;-3.20;99.90
34279;DHT22;20538;51.528;9.942;2022-11-20T08:36:58;-3.10;99.90
34279;DHT22;20538;51.528;9.942;2022-11-20T08:39:24;-3.10;99.90
34279;DHT22;20538;51.528;9.942;2022-11-20T08:41:50;-3.00;99.90
34279;DHT22;20538;51.528;9.942;2022-11-20T08:44:16;-3.00;99.90
34279;DHT22;20538;51.528;9.942;2022-11-20T08:46:42;-2.90;99.90
34279;DHT22;20538;51.528;9.942;2022-11-20T08:49:10;-2.90;99.90
34279;DHT22;20538;51.528;9.942;2022-11-20T08:51:37;-2.90;99.90
34279;DHT22;20538;51.528;9.942;2022-11-20T08:54:03;-2.90;99.90
34279;DHT22;20538;51.528;9.942;2022-11-20T08:56:29;-2.80;99.90
34279;DHT22;20538;51.528;9.942;2022-11-20T08:58:55;-2.70;99.90
34279;DHT22;20538;51.528;9.942;2022-11-20T09:01:22;-2.60;99.90
34279;DHT22;20538;51.528;9.942;2022-11-20T09:03:51;-2.60;99.90
34279;DHT22;20538;51.528;9.942;2022-11-20T09:06:17;-2.60;99.90
34279;DHT22;20538;51.528;9.942;2022-11-20T09:08:43;-2.50;99.90
34279;DHT22;20538;51.528;9.942;2022-11-20T09:11:10;-2.40;99.90
34279;DHT22;20538;51.528;9.942;2022-11-20T09:13:37;-2.50;99.90
34279;DHT22;20538;51.528;9.942;2022-11-20T09:16:05;-2.40;99.90
34279;DHT22;20538;51.528;9.942;2022-11-20T09:18:32;-2.40;99.90
34279;DHT22;20538;51.528;9.942;2022-11-20T09:21:02;-2.40;99.90
34279;DHT22;20538;51.528;9.942;2022-11-20T09:23:32;-2.30;99.90
34279;DHT22;20538;51.528;9.942;2022-11-20T09:26:02;-2.20;99.90
34279;DHT22;20538;51.528;9.942;2022-11-20T09:28:28;-2.10;99.90
34279;DHT22;20538;51.528;9.942;2022-11-20T09:30:53;-2.20;99.90
34279;DHT22;20538;51.528;9.942;2022-11-20T09:33:19;-2.20;99.90
34279;DHT22;20538;51.528;9.942;2022-11-20T09:35:45;-2.30;99.90
34279;DHT22;20538;51.528;9.942;2022-11-20T09:38:10;-2.20;99.90
34279;DHT22;20538;51.528;9.942;2022-11-20T09:40:40;-2.20;99.90
34279;DHT22;20538;51.528;9.942;2022-11-20T09:43:31;-2.10;99.90
34279;DHT22;20538;51.528;9.942;2022-11-20T09:51:39;-2.30;99.90
34279;DHT22;20538;51.528;9.942;2022-11-20T09:54:18;-2.30;99.90
34279;DHT22;20538;51.528;9.942;2022-11-20T09:56:54;-2.30;99.90
34279;DHT22;20538;51.528;9.942;2022-11-20T09:59:36;-2.30;99.90
34279;DHT22;20538;51.528;9.942;2022-11-20T10:02:16;-2.10;99.90
34279;DHT22;20538;51.528;9.942;2022-11-20T10:04:55;-1.90;99.90
34279;DHT22;20538;51.528;9.942;2022-11-20T10:10:41;-1.70;99.90
34279;DHT22;20538;51.528;9.942;2022-11-20T10:29:46;-1.60;99.90
34279;DHT22;20538;51.528;9.942;2022-11-20T10:32:24;-1.50;99.90
34279;DHT22;20538;51.528;9.942;2022-11-20T10:35:06;-1.50;99.90
34279;DHT22;20538;51.528;9.942;2022-11-20T10:37:47;-1.50;99.90
34279;DHT22;20538;51.528;9.942;2022-11-20T10:43:02;-1.30;99.90
34279;DHT22;20538;51.528;9.942;2022-11-20T10:45:57;-1.40;99.90
34279;DHT22;20538;51.528;9.942;2022-11-20T10:48:26;-1.20;99.90
34279;DHT22;20538;51.528;9.942;2022-11-20T10:51:10;-1.10;99.90
34279;DHT22;20538;51.528;9.942;2022-11-20T10:56:22;-1.00;99.90
34279;DHT22;20538;51.528;9.942;2022-11-20T11:01:41;-1.00;99.90
34279;DHT22;20538;51.528;9.942;2022-11-20T11:06:49;-0.90;99.90
34279;DHT22;20538;51.528;9.942;2022-11-20T11:09:24;-0.80;99.90
34279;DHT22;20538;51.528;9.942;2022-11-20T11:11:53;-0.80;99.90
34279;DHT22;20538;51.528;9.942;2022-11-20T11:14:18;-0.80;99.90
34279;DHT22;20538;51.528;9.942;2022-11-20T11:16:59;-0.70;99.90
34279;DHT22;20538;51.528;9.942;2022-11-20T11:19:27;-0.80;99.90
34279;DHT22;20538;51.528;9.942;2022-11-20T11:21:56;-0.70;99.90
34279;DHT22;20538;51.528;9.942;2022-11-20T11:24:27;-0.70;99.90
34279;DHT22;20538;51.528;9.942;2022-11-20T11:27:00;-0.70;99.90
34279;DHT22;20538;51.528;9.942;2022-11-20T11:29:32;-0.70;99.90
34279;DHT22;20538;51.528;9.942;2022-11-20T11:32:13;-0.70;99.90
34279;DHT22;20538;51.528;9.942;2022-11-20T11:34:39;-0.60;99.90
34279;DHT22;20538;51.528;9.942;2022-11-20T11:37:14;-0.60;99.90
34279;DHT22;20538;51.528;9.942;2022-11-20T11:39:42;-0.60;99.90
34279;DHT22;20538;51.528;9.942;2022-11-20T11:42:16;-0.60;99.90
34279;DHT22;20538;51.528;9.942;2022-11-20T11:44:47;-0.50;99.90
34279;DHT22;20538;51.528;9.942;2022-11-20T11:47:35;-0.50;99.90
34279;DHT22;20538;51.528;9.942;2022-11-20T11:55:54;-0.30;99.90
34279;DHT22;20538;51.528;9.942;2022-11-20T12:01:37;-0.20;99.90
34279;DHT22;20538;51.528;9.942;2022-11-20T12:04:05;-0.20;99.90
34279;DHT22;20538;51.528;9.942;2022-11-20T12:06:36;-0.20;99.90
34279;DHT22;20538;51.528;9.942;2022-11-20T12:09:05;-0.20;99.90
34279;DHT22;20538;51.528;9.942;2022-11-20T12:11:56;-0.10;99.90
34279;DHT22;20538;51.528;9.942;2022-11-20T12:14:34;-0.10;99.90
34279;DHT22;20538;51.528;9.942;2022-11-20T12:17:01;0.00;99.90
34279;DHT22;20538;51.528;9.942;2022-11-20T12:19:30;0.00;99.90
34279;DHT22;20538;51.528;9.942;2022-11-20T12:25:10;0.10;99.90
34279;DHT22;20538;51.528;9.942;2022-11-20T12:30:22;0.20;99.90
34279;DHT22;20538;51.528;9.942;2022-11-20T12:45:06;0.40;99.90
34279;DHT22;20538;51.528;9.942;2022-11-20T12:56:00;0.50;99.90
34279;DHT22;20538;51.528;9.942;2022-11-20T13:01:37;0.60;99.90
34279;DHT22;20538;51.528;9.942;2022-11-20T13:07:10;0.70;99.90
34279;DHT22;20538;51.528;9.942;2022-11-20T13:09:42;0.70;99.90
34279;DHT22;20538;51.528;9.942;2022-11-20T13:12:14;0.70;99.90
34279;DHT22;20538;51.528;9.942;2022-11-20T13:14:58;0.70;99.90
34279;DHT22;20538;51.528;9.942;2022-11-20T13:17:45;0.70;99.90
34279;DHT22;20538;51.528;9.942;2022-11-20T13:20:16;0.60;99.90
34279;DHT22;20538;51.528;9.942;2022-11-20T13:22:45;0.60;99.90
34279;DHT22;20538;51.528;9.942;2022-11-20T13:27:48;0.70;99.90
34279;DHT22;20538;51.528;9.942;2022-11-20T13:30:17;0.70;99.90
34279;DHT22;20538;51.528;9.942;2022-11-20T13:35:29;0.70;99.90
34279;DHT22;20538;51.528;9.942;2022-11-20T13:38:09;0.70;99.90
34279;DHT22;20538;51.528;9.942;2022-11-20T13:40:38;0.60;99.90
34279;DHT22;20538;51.528;9.942;2022-11-20T13:43:57;0.50;99.90
34279;DHT22;20538;51.528;9.942;2022-11-20T13:45:57;0.60;99.90
34279;DHT22;20538;51.528;9.942;2022-11-20T13:48:26;0.50;99.90
34279;DHT22;20538;51.528;9.942;2022-11-20T13:57:05;0.30;99.90
34279;DHT22;20538;51.528;9.942;2022-11-20T14:02:17;0.20;99.90
34279;DHT22;20538;51.528;9.942;2022-11-20T14:04:47;0.30;99.90
34279;DHT22;20538;51.528;9.942;2022-11-20T14:07:16;0.20;99.90
34279;DHT22;20538;51.528;9.942;2022-11-20T14:09:56;0.30;99.90
34279;DHT22;20538;51.528;9.942;2022-11-20T14:12:30;0.30;99.90
34279;DHT22;20538;51.528;9.942;2022-11-20T14:14:56;0.30;99.90
34279;DHT22;20538;51.528;9.942;2022-11-20T14:19:52;0.10;99.90
34279;DHT22;20538;51.528;9.942;2022-11-20T14:22:22;0.00;99.90
34279;DHT22;20538;51.528;9.942;2022-11-20T14:25:06;-0.10;99.90
34279;DHT22;20538;51.528;9.942;2022-11-20T14:27:37;-0.10;99.90
34279;DHT22;20538;51.528;9.942;2022-11-20T14:30:05;-0.10;99.90
34279;DHT22;20538;51.528;9.942;2022-11-20T14:32:31;-0.20;99.90
34279;DHT22;20538;51.528;9.942;2022-11-20T14:35:02;-0.30;99.90
34279;DHT22;20538;51.528;9.942;2022-11-20T14:37:36;-0.30;99.90
34279;DHT22;20538;51.528;9.942;2022-11-20T14:40:02;-0.40;99.90
34279;DHT22;20538;51.528;9.942;2022-11-20T14:42:28;-0.40;99.90
34279;DHT22;20538;51.528;9.942;2022-11-20T14:44:57;-0.50;99.90
34279;DHT22;20538;51.528;9.942;2022-11-20T14:47:29;-0.60;99.90
34279;DHT22;20538;51.528;9.942;2022-11-20T14:49:58;-0.60;99.90
34279;DHT22;20538;51.528;9.942;2022-11-20T14:52:27;-0.70;99.90
34279;DHT22;20538;51.528;9.942;2022-11-20T14:54:57;-0.80;99.90
34279;DHT22;20538;51.528;9.942;2022-11-20T14:57:30;-0.80;99.90
34279;DHT22;20538;51.528;9.942;2022-11-20T15:02:33;-0.90;99.90
34279;DHT22;20538;51.528;9.942;2022-11-20T15:05:00;-1.00;99.90
34279;DHT22;20538;51.528;9.942;2022-11-20T15:07:32;-1.00;99.90
34279;DHT22;20538;51.528;9.942;2022-11-20T15:10:26;-1.00;99.90
34279;DHT22;20538;51.528;9.942;2022-11-20T15:13:00;-1.00;99.90
34279;DHT22;20538;51.528;9.942;2022-11-20T15:18:02;-1.10;99.90
34279;DHT22;20538;51.528;9.942;2022-11-20T15:20:31;-1.10;99.90
34279;DHT22;20538;51.528;9.942;2022-11-20T15:22:57;-1.20;99.90
34279;DHT22;20538;51.528;9.942;2022-11-20T15:25:23;-1.20;99.90
34279;DHT22;20538;51.528;9.942;2022-11-20T15:27:53;-1.10;99.90
34279;DHT22;20538;51.528;9.942;2022-11-20T15:30:21;-1.20;99.90
34279;DHT22;20538;51.528;9.942;2022-11-20T15:32:47;-1.10;99.90
34279;DHT22;20538;51.528;9.942;2022-11-20T15:35:14;-1.10;99.90
34279;DHT22;20538;51.528;9.942;2022-11-20T15:37:40;-1.10;99.90
34279;DHT22;20538;51.528;9.942;2022-11-20T15:40:07;-1.10;99.90
34279;DHT22;20538;51.528;9.942;2022-11-20T15:42:33;-1.10;99.90
34279;DHT22;20538;51.528;9.942;2022-11-20T15:44:59;-1.00;99.90
34279;DHT22;20538;51.528;9.942;2022-11-20T15:47:30;-1.00;99.90
34279;DHT22;20538;51.528;9.942;2022-11-20T15:49:56;-0.90;99.90
34279;DHT22;20538;51.528;9.942;2022-11-20T15:52:22;-0.90;99.90
34279;DHT22;20538;51.528;9.942;2022-11-20T15:54:48;-0.90;99.90
34279;DHT22;20538;51.528;9.942;2022-11-20T15:57:13;-0.90;99.90
34279;DHT22;20538;51.528;9.942;2022-11-20T15:59:39;-0.90;99.90
34279;DHT22;20538;51.528;9.942;2022-11-20T16:02:14;-0.80;99.90
34279;DHT22;20538;51.528;9.942;2022-11-20T16:04:40;-0.80;99.90
34279;DHT22;20538;51.528;9.942;2022-11-20T16:07:10;-0.80;99.90
34279;DHT22;20538;51.528;9.942;2022-11-20T16:09:35;-0.80;99.90
34279;DHT22;20538;51.528;9.942;2022-11-20T16:12:08;-0.80;99.90
34279;DHT22;20538;51.528;9.942;2022-11-20T16:14:57;-0.80;99.90
34279;DHT22;20538;51.528;9.942;2022-11-20T16:17:41;-0.80;99.90
34279;DHT22;20538;51.528;9.942;2022-11-20T16:20:12;-0.70;99.90
34279;DHT22;20538;51.528;9.942;2022-11-20T16:22:38;-0.70;99.90
34279;DHT22;20538;51.528;9.942;2022-11-20T16:25:04;-0.70;99.90
34279;DHT22;20538;51.528;9.942;2022-11-20T16:27:30;-0.60;99.90
34279;DHT22;20538;51.528;9.942;2022-11-20T16:29:56;-0.60;99.90
34279;DHT22;20538;51.528;9.942;2022-11-20T16:32:21;-0.50;99.90
34279;DHT22;20538;51.528;9.942;2022-11-20T16:34:47;-0.50;99.90
34279;DHT22;20538;51.528;9.942;2022-11-20T16:37:12;-0.40;99.90
34279;DHT22;20538;51.528;9.942;2022-11-20T16:39:38;-0.30;99.90
34279;DHT22;20538;51.528;9.942;2022-11-20T16:42:05;-0.30;99.90
34279;DHT22;20538;51.528;9.942;2022-11-20T16:44:31;-0.20;99.90
34279;DHT22;20538;51.528;9.942;2022-11-20T16:46:57;-0.20;99.90
34279;DHT22;20538;51.528;9.942;2022-11-20T16:49:22;-0.20;99.90
34279;DHT22;20538;51.528;9.942;2022-11-20T16:51:49;-0.10;99.90
34279;DHT22;20538;51.528;9.942;2022-11-20T16:54:14;-0.10;99.90
34279;DHT22;20538;51.528;9.942;2022-11-20T16:56:40;-0.10;99.90
34279;DHT22;20538;51.528;9.942;2022-11-20T16:59:06;0.00;99.90
34279;DHT22;20538;51.528;9.942;2022-11-20T17:01:31;0.00;99.90
34279;DHT22;20538;51.528;9.942;2022-11-20T17:06:27;0.10;99.90
34279;DHT22;20538;51.528;9.942;2022-11-20T17:08:54;0.10;99.90
34279;DHT22;20538;51.528;9.942;2022-11-20T17:11:19;0.10;99.90
34279;DHT22;20538;51.528;9.942;2022-11-20T17:13:46;0.20;99.90
34279;DHT22;20538;51.528;9.942;2022-11-20T17:16:17;0.20;99.90
34279;DHT22;20538;51.528;9.942;2022-11-20T17:18:43;0.20;99.90
34279;DHT22;20538;51.528;9.942;2022-11-20T17:21:10;0.20;99.90
34279;DHT22;20538;51.528;9.942;2022-11-20T17:23:38;0.30;99.90
34279;DHT22;20538;51.528;9.942;2022-11-20T17:26:09;0.30;99.90
34279;DHT22;20538;51.528;9.942;2022-11-20T17:28:36;0.30;99.90
34279;DHT22;20538;51.528;9.942;2022-11-20T17:31:05;0.40;99.90